Terminal Aerodrome Forecast
Issued by NWS Albuquerque, NM

Home | Current Version | Previous Version | Text Only | Print | Product List | Glossary On
Versions: 1 2 3 4 5 6 7 8 9 10 11 12 13 14
453
FTUS45 KABQ 311128
TAFABQ
TAF
KABQ 311128Z 3112/0112 18007KT P6SM SCT080 SCT150
     FM311900 15008KT P6SM VCSH BKN090 BKN150
     FM312200 10015G25KT P6SM VCSH SCT070 BKN090
     FM010500 09015KT P6SM BKN060 BKN120=

USA.gov is the U.S. government's official web portal to all federal, state and local government web resources and services.